Time;durP1;ratioP1;P1;durP2;ratioP2;P2;SDS_P1;SDS_P2;PMS_P1;PMS_P2;Temp;Humidity;BMP_temperature;BMP_pressure;BME280_temperature;BME280_humidity;BME280_pressure;Samples;Min_cycle;Max_cycle;Signal;HPM_P1;HPM_P2
2023/07/07 00:00:24;;;;;;;0.60;0.60;;;;;;;24.72;85.61;99149.72;5072152;28;20203;-69
2023/07/07 00:02:51;;;;;;;0.60;0.60;;;;;;;24.74;85.26;99158.28;5072227;28;20572;-70
2023/07/07 00:05:19;;;;;;;0.60;0.60;;;;;;;24.81;84.97;99156.78;5071567;28;20203;-70
2023/07/07 00:07:48;;;;;;;0.90;0.90;;;;;;;24.83;84.75;99156.63;5072067;28;20254;-69
2023/07/07 00:10:15;;;;;;;0.50;0.50;;;;;;;24.78;84.75;99159.63;5071556;28;20242;-70
2023/07/07 00:12:43;;;;;;;0.50;0.50;;;;;;;24.54;84.69;99133.91;5072085;28;20711;-69
2023/07/07 00:15:11;;;;;;;0.60;0.60;;;;;;;24.68;85.24;99158.03;5071637;28;20196;-68
2023/07/07 00:17:41;;;;;;;0.73;0.73;;;;;;;24.72;84.72;99154.97;5071332;28;20228;-70
2023/07/07 00:20:10;;;;;;;0.73;0.73;;;;;;;24.80;84.75;99151.66;5071345;28;20227;-69
2023/07/07 00:22:38;;;;;;;0.53;0.50;;;;;;;24.89;83.50;99151.66;5071352;28;20196;-69
2023/07/07 00:25:06;;;;;;;0.60;0.60;;;;;;;24.97;83.16;99149.16;5071706;28;20196;-70
2023/07/07 00:27:32;;;;;;;0.70;0.70;;;;;;;24.99;82.75;99152.44;5071607;28;20242;-70
2023/07/07 00:30:02;;;;;;;0.60;0.60;;;;;;;25.13;82.63;99153.78;5071094;28;20200;-70
2023/07/07 00:32:30;;;;;;;0.60;0.60;;;;;;;25.17;81.76;99160.38;5070878;28;20268;-69
2023/07/07 00:34:57;;;;;;;0.90;0.90;;;;;;;25.14;82.12;99159.88;5071574;28;20196;-70
2023/07/07 00:37:24;;;;;;;2.00;0.57;;;;;;;25.18;82.39;99155.97;5071286;28;20629;-70
2023/07/07 00:39:51;;;;;;;1.00;0.80;;;;;;;25.17;82.04;99147.25;5071452;28;20196;-70
2023/07/07 00:42:18;;;;;;;0.70;0.70;;;;;;;25.19;82.30;99152.38;5071316;28;20591;-68
2023/07/07 00:45:10;;;;;;;0.90;0.90;;;;;;;25.19;81.85;99158.47;5071250;28;20200;-69
2023/07/07 00:47:42;;;;;;;0.70;0.70;;;;;;;25.21;81.48;99159.13;5070289;28;20274;-70
2023/07/07 00:50:10;;;;;;;2.00;0.70;;;;;;;25.21;81.75;99171.41;5070787;28;20195;-70
2023/07/07 00:52:39;;;;;;;0.77;0.77;;;;;;;25.22;81.91;99167.84;5071188;28;20192;-68
2023/07/07 00:55:09;;;;;;;0.63;0.63;;;;;;;25.23;81.78;99165.06;5071054;28;20196;-69
2023/07/07 00:57:36;;;;;;;0.70;0.70;;;;;;;25.21;81.90;99172.25;5071193;28;20686;-69
2023/07/07 01:00:03;;;;;;;0.93;0.93;;;;;;;25.11;81.81;99160.13;5071021;28;20258;-69
2023/07/07 01:02:31;;;;;;;0.60;0.60;;;;;;;25.21;81.93;99166.16;5070990;28;20291;-70
2023/07/07 01:05:03;;;;;;;0.77;0.70;;;;;;;25.23;81.91;99164.25;5070842;28;20202;-70
2023/07/07 01:07:33;;;;;;;1.60;1.37;;;;;;;25.08;82.00;99140.25;5067714;28;20227;-69
2023/07/07 01:09:59;;;;;;;0.70;0.70;;;;;;;25.18;82.20;99166.47;5071012;28;20733;-69
2023/07/07 01:12:26;;;;;;;0.77;0.77;;;;;;;25.18;82.09;99169.09;5071322;28;20658;-70
2023/07/07 01:14:53;;;;;;;2.07;0.70;;;;;;;25.18;81.56;99161.22;5070598;28;20203;-69
2023/07/07 01:17:29;;;;;;;0.87;0.87;;;;;;;25.17;82.26;99159.59;5070720;28;20722;-69
2023/07/07 01:20:21;;;;;;;0.57;0.57;;;;;;;25.14;82.01;99162.50;5070463;28;20286;-69
2023/07/07 01:23:36;;;;;;;0.50;0.50;;;;;;;25.07;82.09;99160.41;5065522;28;20211;-69
2023/07/07 01:26:22;;;;;;;0.93;0.93;;;;;;;25.02;82.14;99162.66;5069175;28;20196;-70
2023/07/07 01:29:15;;;;;;;0.63;0.60;;;;;;;24.93;82.42;99174.00;5070685;28;20192;-69
2023/07/07 01:31:50;;;;;;;0.40;0.40;;;;;;;24.74;83.41;99163.53;5067503;28;20690;-69
2023/07/07 01:34:17;;;;;;;0.70;0.70;;;;;;;24.58;84.49;99168.53;5070347;28;20225;-69
2023/07/07 01:36:44;;;;;;;0.90;0.90;;;;;;;24.49;84.86;99164.94;5070358;28;20261;-69
2023/07/07 01:39:11;;;;;;;0.47;0.47;;;;;;;24.37;85.57;99170.47;5070076;28;20220;-69
2023/07/07 01:41:43;;;;;;;0.80;0.80;;;;;;;24.23;86.11;99173.53;5070088;28;20204;-70
2023/07/07 01:44:17;;;;;;;0.50;0.50;;;;;;;24.10;86.75;99159.84;5070008;28;20196;-70
2023/07/07 01:46:52;;;;;;;1.10;0.70;;;;;;;24.00;87.45;99163.28;5070472;28;20203;-70
2023/07/07 01:49:25;;;;;;;0.60;0.60;;;;;;;23.96;87.26;99161.91;5069655;28;20621;-69
2023/07/07 01:52:00;;;;;;;0.60;0.60;;;;;;;23.93;87.78;99162.16;5070306;28;20195;-70
2023/07/07 01:54:30;;;;;;;1.03;0.60;;;;;;;23.93;88.00;99162.16;5070261;28;20200;-70
2023/07/07 01:56:59;;;;;;;0.50;0.50;;;;;;;23.86;87.80;99155.81;5069511;28;20211;-68
2023/07/07 01:59:26;;;;;;;0.70;0.70;;;;;;;23.75;88.31;99158.53;5069916;28;20212;-69
2023/07/07 02:01:55;;;;;;;0.50;0.50;;;;;;;23.65;88.85;99152.44;5070347;28;20196;-69
2023/07/07 02:04:22;;;;;;;0.70;0.70;;;;;;;23.53;88.91;99148.31;5070030;28;20599;-69
2023/07/07 02:06:49;;;;;;;2.20;1.20;;;;;;;23.35;88.48;99132.41;5070427;28;20626;-70
2023/07/07 02:09:16;;;;;;;0.70;0.70;;;;;;;23.41;88.95;99144.97;5069825;28;20204;-69
2023/07/07 02:11:43;;;;;;;0.50;0.50;;;;;;;23.37;89.21;99147.94;5069583;28;20561;-69
2023/07/07 02:14:09;;;;;;;0.80;0.80;;;;;;;23.30;89.59;99146.81;5069503;28;20215;-70
2023/07/07 02:16:36;;;;;;;0.77;0.77;;;;;;;23.29;89.96;99146.00;5069829;28;20699;-69
2023/07/07 02:19:04;;;;;;;0.60;0.60;;;;;;;23.27;88.99;99147.09;5069830;28;20211;-68
2023/07/07 02:21:31;;;;;;;0.80;0.80;;;;;;;23.25;89.49;99138.56;5069887;28;20196;-69
2023/07/07 02:23:58;;;;;;;3.20;0.60;;;;;;;23.24;89.32;99139.50;5070178;28;20207;-69
2023/07/07 02:26:25;;;;;;;0.47;0.47;;;;;;;23.25;88.54;99144.63;5069590;28;20199;-69
2023/07/07 02:28:52;;;;;;;0.70;0.70;;;;;;;23.24;88.59;99149.97;5069816;28;20192;-69
2023/07/07 02:31:18;;;;;;;0.50;0.50;;;;;;;23.25;87.97;99146.41;5069543;28;20200;-69
2023/07/07 02:33:45;;;;;;;0.60;0.60;;;;;;;23.33;87.20;99146.56;5069753;28;20207;-69
2023/07/07 02:36:13;;;;;;;0.70;0.70;;;;;;;23.36;87.73;99151.53;5069516;28;20220;-69
2023/07/07 02:38:40;;;;;;;0.60;0.60;;;;;;;23.34;87.23;99135.13;5069460;28;20298;-68
2023/07/07 02:41:07;;;;;;;0.60;0.60;;;;;;;23.37;87.23;99142.72;5067140;28;20199;-69
2023/07/07 02:43:34;;;;;;;0.80;0.80;;;;;;;23.36;87.01;99146.31;5072671;28;20207;-69
2023/07/07 02:46:00;;;;;;;0.70;0.70;;;;;;;23.28;87.02;99133.88;5073748;28;20196;-69
2023/07/07 02:48:27;;;;;;;0.50;0.50;;;;;;;23.34;87.69;99137.75;5073011;28;20192;-69
2023/07/07 02:50:55;;;;;;;1.00;0.83;;;;;;;23.43;87.92;99152.69;5073379;28;20199;-69
2023/07/07 02:53:26;;;;;;;0.80;0.80;;;;;;;23.46;87.48;99157.66;5073116;28;20235;-68
2023/07/07 02:55:53;;;;;;;2.00;0.60;;;;;;;23.48;87.46;99160.97;5073214;28;20285;-69
2023/07/07 02:58:20;;;;;;;1.10;1.10;;;;;;;23.50;86.82;99164.28;5073440;28;20192;-69
2023/07/07 03:00:47;;;;;;;0.50;0.50;;;;;;;23.50;86.94;99156.41;5073045;28;20207;-69
2023/07/07 03:03:13;;;;;;;0.70;0.70;;;;;;;23.50;86.96;99156.41;5073401;28;20199;-69
2023/07/07 03:05:41;;;;;;;0.70;0.70;;;;;;;23.51;86.92;99163.31;5072495;28;20250;-69
2023/07/07 03:08:08;;;;;;;0.77;0.77;;;;;;;23.50;87.09;99153.81;5073009;28;20196;-69
2023/07/07 03:10:37;;;;;;;0.73;0.73;;;;;;;23.51;86.99;99160.69;5072839;28;20242;-69
2023/07/07 03:13:05;;;;;;;0.50;0.50;;;;;;;23.52;87.04;99162.38;5072330;28;20200;-69
2023/07/07 03:15:38;;;;;;;0.57;0.57;;;;;;;23.54;87.26;99155.19;5073031;28;20200;-68
2023/07/07 03:18:05;;;;;;;0.83;0.83;;;;;;;23.55;87.80;99156.88;5072468;28;20204;-69
2023/07/07 03:20:32;;;;;;;1.03;1.03;;;;;;;23.52;88.53;99141.44;5072835;28;20203;-70
2023/07/07 03:22:59;;;;;;;0.70;0.70;;;;;;;23.54;89.12;99147.34;5072317;28;20207;-69
2023/07/07 03:25:26;;;;;;;0.50;0.50;;;;;;;23.52;88.93;99141.44;5072236;28;20198;-69
2023/07/07 03:27:54;;;;;;;0.97;0.97;;;;;;;23.57;89.26;99147.09;5072486;28;20667;-69
2023/07/07 03:30:21;;;;;;;1.70;0.77;;;;;;;23.58;89.49;99146.13;5071615;28;20196;-69
2023/07/07 03:32:48;;;;;;;0.50;0.50;;;;;;;23.60;89.42;99144.19;5072345;28;20200;-69
2023/07/07 03:35:15;;;;;;;0.60;0.60;;;;;;;23.59;89.93;99147.75;5072510;28;20702;-69
2023/07/07 03:37:42;;;;;;;0.60;0.60;;;;;;;23.60;90.06;99144.19;5072215;28;20686;-69
2023/07/07 03:40:09;;;;;;;0.40;0.40;;;;;;;23.62;89.74;99137.03;5072277;28;20216;-69
2023/07/07 03:42:36;;;;;;;0.50;0.50;;;;;;;23.55;89.85;99128.09;5069294;28;20630;-69
2023/07/07 03:45:05;;;;;;;0.73;0.73;;;;;;;23.68;89.58;99148.75;5070327;28;20250;-70
2023/07/07 03:47:32;;;;;;;0.50;0.50;;;;;;;23.76;89.45;99147.13;5072517;28;20200;-69
2023/07/07 03:49:59;;;;;;;0.93;0.93;;;;;;;23.86;89.65;99158.44;5072266;28;20212;-70
2023/07/07 03:52:26;;;;;;;1.60;0.73;;;;;;;23.93;89.68;99162.16;5071611;28;20232;-69
2023/07/07 03:54:53;;;;;;;0.60;0.60;;;;;;;23.99;90.17;99159.00;5071197;28;20196;-69
2023/07/07 03:57:20;;;;;;;0.90;0.90;;;;;;;24.08;88.72;99164.38;5071869;28;20193;-70
2023/07/07 03:59:47;;;;;;;1.03;0.83;;;;;;;24.11;87.89;99169.31;5072045;28;20227;-70
2023/07/07 04:02:15;;;;;;;1.93;0.70;;;;;;;24.19;87.67;99178.22;5070862;28;20576;-69
2023/07/07 04:04:42;;;;;;;0.80;0.80;;;;;;;24.25;87.97;99182.91;5071461;28;20203;-70
2023/07/07 04:07:09;;;;;;;1.03;1.00;;;;;;;24.37;87.56;99180.94;5071391;28;20291;-69
2023/07/07 04:09:36;;;;;;;2.33;0.73;;;;;;;24.43;86.79;99181.22;5071952;28;20192;-69
2023/07/07 04:12:03;;;;;;;0.70;0.70;;;;;;;24.48;86.65;99178.19;5071534;28;20648;-68
2023/07/07 04:14:30;;;;;;;0.63;0.63;;;;;;;24.58;86.95;99179.03;5071560;28;20196;-69
2023/07/07 04:16:56;;;;;;;0.70;0.70;;;;;;;24.68;87.10;99173.75;5071854;28;20230;-69
2023/07/07 04:19:25;;;;;;;0.77;0.77;;;;;;;24.75;86.73;99167.78;5069901;28;20223;-69
2023/07/07 04:21:51;;;;;;;0.80;0.80;;;;;;;24.85;85.77;99181.75;5070790;28;20580;-69
2023/07/07 04:24:21;;;;;;;1.10;1.00;;;;;;;24.92;84.50;99172.34;5071097;28;20664;-69
2023/07/07 04:26:48;;;;;;;0.40;0.40;;;;;;;25.01;84.00;99181.97;5071789;28;20231;-69
2023/07/07 04:29:14;;;;;;;0.70;0.70;;;;;;;25.06;85.54;99171.06;5071089;28;20660;-69
2023/07/07 04:31:45;;;;;;;0.73;0.73;;;;;;;25.16;84.00;99173.66;5071206;28;20203;-69
2023/07/07 04:34:12;;;;;;;1.17;1.17;;;;;;;25.29;84.99;99175.00;5071368;28;20204;-69
2023/07/07 04:36:41;;;;;;;1.03;0.60;;;;;;;25.43;84.44;99179.75;5071290;28;20250;-69
2023/07/07 04:39:08;;;;;;;0.83;0.83;;;;;;;25.53;82.10;99177.94;5070792;28;20254;-69
2023/07/07 04:41:34;;;;;;;1.10;0.80;;;;;;;25.57;82.38;99186.34;5071262;28;20199;-68
2023/07/07 04:44:02;;;;;;;0.87;0.87;;;;;;;25.69;81.78;99181.75;5070451;28;20203;-69
2023/07/07 04:46:33;;;;;;;0.93;0.80;;;;;;;25.75;81.16;99181.94;5069047;28;20280;-69
2023/07/07 04:49:06;;;;;;;0.60;0.60;;;;;;;25.78;81.16;99176.44;5070232;28;20596;-69
2023/07/07 04:51:33;;;;;;;1.07;1.07;;;;;;;25.93;81.05;99174.94;5070066;28;20207;-69
2023/07/07 04:54:01;;;;;;;2.20;0.93;;;;;;;26.02;81.43;99174.03;5069637;28;20614;-69
2023/07/07 04:56:28;;;;;;;0.93;0.93;;;;;;;26.17;80.70;99181.44;5067188;28;20215;-69
2023/07/07 04:58:57;;;;;;;3.00;0.60;;;;;;;26.12;80.34;99179.22;5068181;28;20196;-69
2023/07/07 05:01:26;;;;;;;0.80;0.80;;;;;;;26.20;82.00;99181.13;5070213;28;20208;-70
2023/07/07 05:03:56;;;;;;;0.73;0.70;;;;;;;26.28;82.72;99175.94;5070129;28;20203;-70
2023/07/07 05:06:25;;;;;;;0.60;0.60;;;;;;;26.45;81.70;99185.63;5069847;28;20199;-69
2023/07/07 05:08:52;;;;;;;0.87;0.87;;;;;;;26.56;80.58;99182.75;5070191;28;20203;-70
2023/07/07 05:11:22;;;;;;;0.80;0.80;;;;;;;26.68;80.42;99178.09;5065795;28;21992;-70
2023/07/07 05:13:49;;;;;;;0.93;0.93;;;;;;;26.85;80.01;99188.56;5070407;28;20192;-70
2023/07/07 05:16:18;;;;;;;0.60;0.60;;;;;;;26.85;79.65;99183.31;5065940;28;20236;-71
2023/07/07 05:18:45;;;;;;;0.77;0.77;;;;;;;26.94;79.57;99187.66;5069422;28;20204;-68
2023/07/07 05:21:14;;;;;;;0.67;0.67;;;;;;;26.99;77.98;99185.38;5068467;28;20580;-68
2023/07/07 05:23:41;;;;;;;1.97;1.00;;;;;;;27.05;79.22;99183.94;5069573;28;20196;-75
2023/07/07 05:26:08;;;;;;;0.60;0.60;;;;;;;27.22;77.90;99184.84;5069511;28;20204;-76
2023/07/07 05:28:37;;;;;;;1.07;1.07;;;;;;;27.42;79.12;99191.53;5069514;28;20196;-77
2023/07/07 05:31:07;;;;;;;0.70;0.70;;;;;;;27.51;77.91;99190.63;5070193;28;20192;-75
2023/07/07 05:33:34;;;;;;;0.73;0.70;;;;;;;27.68;76.67;99197.59;5069945;28;20667;-71
2023/07/07 05:36:03;;;;;;;1.13;1.13;;;;;;;27.80;75.13;99206.84;5069903;28;20195;-70
2023/07/07 05:38:31;;;;;;;0.77;0.77;;;;;;;27.80;75.35;99212.13;5069411;28;20204;-68
2023/07/07 05:40:58;;;;;;;1.10;1.10;;;;;;;27.80;75.81;99185.78;5069986;28;20224;-68
2023/07/07 05:43:26;;;;;;;0.50;0.50;;;;;;;28.03;76.13;99205.25;5068734;28;20968;-68
2023/07/07 05:45:59;;;;;;;0.87;0.83;;;;;;;28.27;76.45;99199.25;5068833;28;20676;-69
2023/07/07 05:48:26;;;;;;;1.43;0.80;;;;;;;28.33;74.21;99198.59;5068658;28;20195;-69
2023/07/07 05:50:59;;;;;;;0.80;0.80;;;;;;;28.45;74.73;99209.63;5068440;28;20203;-67
2023/07/07 05:53:25;;;;;;;0.80;0.80;;;;;;;28.57;74.37;99206.50;5068615;28;20219;-67
2023/07/07 05:55:52;;;;;;;1.00;0.53;;;;;;;28.73;72.88;99205.69;5068111;28;20591;-67
2023/07/07 05:58:19;;;;;;;0.60;0.60;;;;;;;28.90;73.11;99188.84;5067123;28;20204;-67
2023/07/07 06:00:46;;;;;;;1.33;0.95;;;;;;;29.26;71.35;99205.13;5067171;28;20467;-65
2023/07/07 06:03:14;;;;;;;0.80;0.80;;;;;;;29.61;68.61;99202.03;5066531;28;20227;-65
2023/07/07 06:05:41;;;;;;;0.75;0.70;;;;;;;29.93;68.78;99201.06;5066629;28;20206;-65
2023/07/07 06:08:08;;;;;;;0.70;0.70;;;;;;;30.03;68.07;99209.59;5067479;28;20583;-64
2023/07/07 06:10:35;;;;;;;0.50;0.50;;;;;;;30.04;66.44;99202.50;5067912;28;20208;-65
2023/07/07 06:13:03;;;;;;;0.80;0.80;;;;;;;29.88;67.06;99203.41;5066651;28;20495;-76
2023/07/07 06:15:30;;;;;;;0.77;0.77;;;;;;;29.92;67.84;99199.41;5067781;28;20749;-75
2023/07/07 06:17:57;;;;;;;0.80;0.80;;;;;;;30.00;69.88;99212.59;5070687;28;20232;-73
2023/07/07 06:20:25;;;;;;;1.08;0.90;;;;;;;30.04;66.49;99213.91;5070769;28;20238;-73
2023/07/07 06:22:54;;;;;;;0.60;0.60;;;;;;;30.03;66.05;99212.25;5073086;28;20207;-72
2023/07/07 06:25:21;;;;;;;1.40;0.95;;;;;;;30.18;66.18;99205.19;5071834;28;20587;-73
2023/07/07 06:27:47;;;;;;;0.95;0.90;;;;;;;30.17;66.16;99205.38;5072879;28;20583;-72
2023/07/07 06:30:14;;;;;;;1.20;1.17;;;;;;;30.43;68.37;99207.72;5073113;28;20647;-72
2023/07/07 06:32:41;;;;;;;0.60;0.57;;;;;;;30.73;64.95;99214.72;5072487;28;20701;-73
2023/07/07 06:35:08;;;;;;;0.60;0.60;;;;;;;31.03;62.83;99211.16;5071302;28;20212;-72
2023/07/07 06:37:37;;;;;;;0.47;0.45;;;;;;;31.32;62.83;99217.47;5072390;28;20203;-72
2023/07/07 06:40:04;;;;;;;1.02;0.57;;;;;;;31.49;65.32;99206.50;5072799;28;20580;-76
2023/07/07 06:42:30;;;;;;;0.95;0.93;;;;;;;31.66;59.70;99212.47;5073289;28;20488;-76
2023/07/07 06:44:57;;;;;;;1.83;0.70;;;;;;;31.85;58.29;99213.69;5072890;28;20580;-77
2023/07/07 06:47:24;;;;;;;0.73;0.73;;;;;;;31.97;58.90;99220.16;5072634;28;20626;-77
2023/07/07 06:49:51;;;;;;;0.82;0.82;;;;;;;32.14;56.91;99217.13;5072486;28;20231;-77
2023/07/07 06:52:18;;;;;;;0.70;0.63;;;;;;;31.95;59.05;99215.03;5072585;28;20212;-77
2023/07/07 06:54:46;;;;;;;0.80;0.80;;;;;;;32.14;60.17;99211.81;5073272;28;20204;-77
2023/07/07 06:57:13;;;;;;;1.25;1.00;;;;;;;32.18;55.96;99191.03;5072551;28;20208;-73
2023/07/07 06:59:40;;;;;;;0.77;0.77;;;;;;;32.42;54.24;99216.34;5072502;28;20721;-76
2023/07/07 07:02:10;;;;;;;0.88;0.88;;;;;;;32.55;55.93;99221.78;5072812;28;20695;-75
2023/07/07 07:04:37;;;;;;;1.05;0.98;;;;;;;32.77;53.51;99218.09;5072678;28;20250;-75
2023/07/07 07:07:04;;;;;;;1.15;1.05;;;;;;;32.92;53.63;99221.50;5070501;28;20208;-76
2023/07/07 07:09:31;;;;;;;1.00;0.90;;;;;;;32.97;53.49;99220.91;5072063;28;20261;-76
2023/07/07 07:11:59;;;;;;;0.70;0.70;;;;;;;32.88;54.54;99222.91;5070547;28;20204;-75
2023/07/07 07:14:26;;;;;;;0.73;0.73;;;;;;;32.84;51.36;99213.69;5070811;28;20435;-75
2023/07/07 07:16:53;;;;;;;1.00;1.00;;;;;;;33.07;53.04;99208.94;5071904;28;20324;-75
2023/07/07 07:19:20;;;;;;;0.77;0.77;;;;;;;33.32;53.73;99211.16;5072119;28;20200;-76
2023/07/07 07:21:46;;;;;;;1.85;1.23;;;;;;;33.58;51.43;99205.97;5071852;28;20219;-75
2023/07/07 07:24:13;;;;;;;1.00;0.98;;;;;;;33.68;50.63;99211.75;5071205;28;20195;-74
2023/07/07 07:26:40;;;;;;;2.80;0.93;;;;;;;33.76;51.05;99199.13;5068841;28;20223;-73
2023/07/07 07:29:08;;;;;;;0.70;0.70;;;;;;;33.91;49.31;99201.63;5070420;28;20204;-69
2023/07/07 07:31:35;;;;;;;0.77;0.77;;;;;;;33.85;51.14;99209.59;5069038;28;20204;-72
2023/07/07 07:34:22;;;;;;;0.75;0.75;;;;;;;34.07;48.80;99211.91;5071719;28;20215;-71
2023/07/07 07:36:48;;;;;;;1.08;1.00;;;;;;;34.44;47.84;99218.56;5070480;28;20265;-72
2023/07/07 07:39:15;;;;;;;1.13;0.77;;;;;;;34.51;46.36;99219.34;5071824;28;20682;-73
2023/07/07 07:41:43;;;;;;;0.80;0.80;;;;;;;34.20;46.85;99217.28;5070769;28;20215;-72
2023/07/07 07:44:11;;;;;;;0.80;0.80;;;;;;;34.04;45.89;99212.28;5069768;28;20287;-71
2023/07/07 07:46:38;;;;;;;0.60;0.60;;;;;;;34.03;47.84;99215.97;5071238;28;20637;-70
2023/07/07 07:49:04;;;;;;;1.23;0.80;;;;;;;34.16;47.82;99216.03;5070297;28;20230;-69
2023/07/07 07:51:31;;;;;;;1.30;1.30;;;;;;;34.26;49.77;99215.63;5068950;28;20212;-71
2023/07/07 07:53:58;;;;;;;0.95;0.95;;;;;;;34.37;45.56;99217.72;5071105;28;20200;-72
2023/07/07 07:56:25;;;;;;;0.60;0.60;;;;;;;34.48;50.40;99221.59;5070936;28;20204;-72
2023/07/07 07:58:52;;;;;;;0.68;0.68;;;;;;;34.31;45.13;99212.38;5071460;28;20210;-71
2023/07/07 08:01:20;;;;;;;0.93;0.80;;;;;;;34.23;45.65;99216.03;5071244;28;20216;-71
2023/07/07 08:03:47;;;;;;;0.70;0.70;;;;;;;34.22;46.44;99217.88;5070569;28;20204;-72
2023/07/07 08:06:13;;;;;;;0.80;0.80;;;;;;;34.45;45.97;99216.69;5071015;28;20204;-72
2023/07/07 08:08:40;;;;;;;1.08;0.70;;;;;;;34.62;46.97;99220.63;5071468;28;20581;-72
2023/07/07 08:11:17;;;;;;;0.57;0.57;;;;;;;34.74;45.65;99218.97;5071589;28;20196;-72
2023/07/07 08:13:44;;;;;;;0.75;0.75;;;;;;;34.56;45.71;99222.22;5071255;28;20218;-71
2023/07/07 08:16:12;;;;;;;0.73;0.73;;;;;;;34.83;46.15;99216.94;5070856;28;20289;-73
2023/07/07 08:18:41;;;;;;;0.95;0.73;;;;;;;34.92;44.90;99223.69;5071074;28;20207;-72
2023/07/07 08:21:08;;;;;;;0.70;0.70;;;;;;;34.88;45.73;99220.63;5071200;28;20216;-72
2023/07/07 08:23:35;;;;;;;0.75;0.52;;;;;;;34.88;44.53;99219.78;5071242;28;20200;-74
2023/07/07 08:26:01;;;;;;;0.98;0.85;;;;;;;34.68;43.58;99230.44;5076466;28;20207;-76
2023/07/07 08:28:28;;;;;;;0.65;0.65;;;;;;;34.58;44.44;99217.50;5068398;28;20238;-73
2023/07/07 08:30:55;;;;;;;0.70;0.70;;;;;;;34.79;44.12;99217.34;5069910;28;20660;-75
2023/07/07 08:33:22;;;;;;;0.80;0.80;;;;;;;34.90;44.18;99215.88;5070267;28;20208;-74
2023/07/07 08:35:50;;;;;;;0.63;0.63;;;;;;;34.83;43.21;99220.44;5069640;28;20204;-75
2023/07/07 08:38:17;;;;;;;1.63;0.77;;;;;;;34.91;46.79;99220.19;5070187;28;20200;-73
2023/07/07 08:40:47;;;;;;;0.82;0.82;;;;;;;35.15;43.13;99213.44;5067350;28;20224;-74
2023/07/07 08:43:16;;;;;;;0.98;0.70;;;;;;;35.32;41.60;99213.81;5068856;28;20891;-74
2023/07/07 08:45:50;;;;;;;0.70;0.70;;;;;;;35.47;41.30;99214.38;5068191;28;20588;-70
2023/07/07 08:48:25;;;;;;;0.90;0.90;;;;;;;35.59;40.75;99213.53;5069607;28;20200;-77
2023/07/07 08:50:59;;;;;;;0.80;0.80;;;;;;;35.72;38.75;99208.16;5070238;28;20264;-76
2023/07/07 08:53:48;;;;;;;0.80;0.80;;;;;;;35.84;39.49;99208.28;5065886;28;20202;-77
2023/07/07 08:56:23;;;;;;;0.82;0.82;;;;;;;35.90;38.65;99210.09;5069599;28;20618;-78
2023/07/07 08:59:02;;;;;;;0.55;0.55;;;;;;;35.85;41.88;99188.59;5069582;28;20207;-72
2023/07/07 09:01:42;;;;;;;0.60;0.60;;;;;;;35.88;40.27;99206.84;5069779;28;20243;-76
2023/07/07 09:04:34;;;;;;;1.10;0.80;;;;;;;35.92;39.19;99202.72;5069801;28;20273;-73
2023/07/07 09:07:19;;;;;;;0.85;0.85;;;;;;;35.97;39.80;99205.53;5066475;28;20604;-75
2023/07/07 09:09:59;;;;;;;0.77;0.77;;;;;;;36.17;39.58;99198.28;5063240;28;20196;-75
2023/07/07 09:12:36;;;;;;;0.63;0.63;;;;;;;36.13;40.76;99197.06;5065990;28;20207;-75
2023/07/07 09:15:12;;;;;;;0.70;0.70;;;;;;;36.24;39.17;99191.03;5068161;28;20664;-75
2023/07/07 09:17:42;;;;;;;0.88;0.88;;;;;;;36.21;40.89;99186.13;5066161;28;20236;-76
2023/07/07 09:20:12;;;;;;;0.80;0.80;;;;;;;36.21;39.15;99196.81;5069825;28;20583;-74
2023/07/07 09:22:47;;;;;;;0.60;0.60;;;;;;;36.37;39.53;99189.28;5071298;28;20257;-75
2023/07/07 09:25:19;;;;;;;0.70;0.70;;;;;;;36.51;41.43;99186.31;5070051;28;20239;-74
2023/07/07 09:27:53;;;;;;;0.80;0.80;;;;;;;36.61;40.90;99183.19;5071203;28;20632;-72
2023/07/07 09:30:28;;;;;;;1.00;1.00;;;;;;;36.62;37.69;99182.97;5071334;28;20329;-75
2023/07/07 09:32:55;;;;;;;1.38;1.02;;;;;;;36.61;36.92;99189.31;5071043;28;20207;-75
2023/07/07 09:35:26;;;;;;;0.80;0.75;;;;;;;36.65;37.54;99181.69;5070801;28;20203;-76
2023/07/07 09:38:07;;;;;;;0.80;0.80;;;;;;;36.30;40.86;99184.84;5070656;28;20207;-76
2023/07/07 09:40:43;;;;;;;0.70;0.70;;;;;;;36.35;38.20;99183.38;5069986;28;20211;-76
2023/07/07 09:43:21;;;;;;;0.60;0.60;;;;;;;36.07;37.96;99184.56;5070081;28;20584;-76
2023/07/07 09:46:03;;;;;;;0.80;0.80;;;;;;;36.09;37.66;99182.50;5071042;28;20203;-76
2023/07/07 09:48:38;;;;;;;1.17;0.70;;;;;;;36.20;39.57;99184.50;5067891;28;20215;-76
2023/07/07 09:51:12;;;;;;;1.00;1.00;;;;;;;36.13;41.44;99156.19;5066075;28;20208;-76
2023/07/07 09:53:41;;;;;;;0.60;0.60;;;;;;;36.24;38.79;99175.03;5069258;28;20196;-77
2023/07/07 09:56:11;;;;;;;0.60;0.60;;;;;;;36.26;38.74;99177.47;5065938;28;20203;-76
2023/07/07 09:58:47;;;;;;;0.80;0.70;;;;;;;36.41;38.84;99163.81;5068132;28;20200;-77
2023/07/07 10:01:16;;;;;;;0.70;0.70;;;;;;;36.33;39.88;99157.69;5067360;28;20314;-77
2023/07/07 10:03:45;;;;;;;0.50;0.50;;;;;;;36.57;37.86;99173.97;5067074;28;20204;-78
2023/07/07 10:06:32;;;;;;;0.95;0.95;;;;;;;36.14;40.36;99158.66;5066081;28;20203;-77
2023/07/07 10:09:01;;;;;;;0.70;0.70;;;;;;;35.92;38.63;99170.69;5067374;28;20243;-76
2023/07/07 10:11:30;;;;;;;1.00;1.00;;;;;;;36.06;39.77;99177.59;5065601;28;20691;-76
2023/07/07 10:13:58;;;;;;;1.02;1.02;;;;;;;36.26;36.68;99164.94;5068694;28;20196;-75
2023/07/07 10:16:33;;;;;;;0.70;0.70;;;;;;;36.25;39.58;99165.97;5062269;28;20262;-76
2023/07/07 10:19:03;;;;;;;0.85;0.70;;;;;;;36.32;40.90;99161.38;5063300;28;20232;-75
2023/07/07 10:21:30;;;;;;;0.70;0.68;;;;;;;36.51;38.49;99164.13;5066953;28;20220;-76
2023/07/07 10:23:57;;;;;;;0.85;0.80;;;;;;;36.59;36.06;99163.88;5064447;28;20207;-74
2023/07/07 10:26:25;;;;;;;0.70;0.70;;;;;;;36.68;37.47;99158.03;5067604;28;20584;-75
2023/07/07 10:28:56;;;;;;;0.75;0.75;;;;;;;36.86;36.48;99151.91;5068505;28;20200;-77
2023/07/07 10:31:26;;;;;;;1.05;1.05;;;;;;;37.00;37.30;99157.97;5068706;28;20636;-75
2023/07/07 10:33:56;;;;;;;0.73;0.73;;;;;;;37.11;36.62;99158.03;5068066;28;20212;-76
2023/07/07 10:36:26;;;;;;;1.00;1.00;;;;;;;37.11;39.13;99150.03;5067642;28;20208;-74
2023/07/07 10:38:54;;;;;;;0.75;0.75;;;;;;;36.98;36.32;99150.13;5068007;28;20200;-76
2023/07/07 10:41:21;;;;;;;0.88;0.88;;;;;;;36.84;36.63;99141.44;5065861;28;20220;-71
2023/07/07 10:43:49;;;;;;;0.80;0.70;;;;;;;36.70;37.94;99150.63;5066014;28;20208;-73
2023/07/07 10:46:16;;;;;;;0.60;0.60;;;;;;;36.60;36.93;99141.47;5068077;28;20219;-77
2023/07/07 10:48:44;;;;;;;0.70;0.70;;;;;;;36.55;36.88;99154.66;5068368;28;20695;-78
2023/07/07 10:51:25;;;;;;;0.80;0.80;;;;;;;36.77;39.20;99140.69;5065410;28;20200;-76
2023/07/07 10:54:01;;;;;;;0.65;0.65;;;;;;;36.62;39.07;99147.41;5067567;28;20868;-77
2023/07/07 10:56:35;;;;;;;0.65;0.60;;;;;;;36.58;37.02;99136.34;5063050;28;20576;-78
2023/07/07 10:59:35;;;;;;;0.55;0.55;;;;;;;36.69;38.11;99134.81;5068343;28;20212;-77
2023/07/07 11:02:16;;;;;;;0.60;0.60;;;;;;;36.79;37.17;99124.44;5062407;28;20579;-77
2023/07/07 11:05:22;;;;;;;0.85;0.85;;;;;;;36.78;37.13;99128.13;5069758;28;20716;-76
2023/07/07 11:07:59;;;;;;;1.00;0.90;;;;;;;36.68;36.42;99111.78;5062775;28;20203;-77
2023/07/07 11:10:51;;;;;;;0.60;0.60;;;;;;;36.91;36.51;99114.63;5070065;28;20335;-73
2023/07/07 11:13:23;;;;;;;0.52;0.52;;;;;;;36.79;35.55;99124.44;5068394;28;20223;-77
2023/07/07 11:16:01;;;;;;;0.82;0.82;;;;;;;36.83;35.88;99109.59;5071283;28;20208;-74
2023/07/07 11:18:45;;;;;;;0.93;0.85;;;;;;;36.93;36.06;99103.75;5070751;28;20638;-74
2023/07/07 11:21:20;;;;;;;0.88;0.88;;;;;;;37.07;36.11;99102.56;5067210;28;20223;-74
2023/07/07 11:24:09;;;;;;;0.77;0.77;;;;;;;36.93;36.02;99106.41;5068731;28;20210;-73
2023/07/07 11:26:53;;;;;;;0.95;0.77;;;;;;;36.56;38.87;99102.88;5071247;28;20670;-73
2023/07/07 11:29:30;;;;;;;0.82;0.73;;;;;;;36.58;37.29;99100.78;5070682;28;20196;-75
2023/07/07 11:32:09;;;;;;;0.60;0.60;;;;;;;36.70;38.66;99094.53;5069740;28;20241;-73
2023/07/07 11:34:50;;;;;;;0.70;0.70;;;;;;;36.49;36.51;99096.75;5069904;28;20571;-73
2023/07/07 11:37:37;;;;;;;0.60;0.60;;;;;;;36.51;37.06;99092.03;5067392;28;20196;-73
2023/07/07 11:40:28;;;;;;;0.80;0.80;;;;;;;36.55;35.19;99086.03;5066868;28;20853;-65
2023/07/07 11:43:13;;;;;;;0.73;0.73;;;;;;;36.76;35.23;99084.81;5069525;28;20750;-65
2023/07/07 11:45:50;;;;;;;1.35;0.85;;;;;;;36.73;34.79;99078.06;5070924;28;20607;-64
2023/07/07 11:48:33;;;;;;;0.70;0.70;;;;;;;36.81;35.59;99068.91;5072734;28;20200;-65